sensor_id;sensor_type;location;lat;lon;timestamp;P1;durP1;ratioP1;P2;durP2;ratioP2
59014;SDS011;44799;53.382;14.666;2022-10-17T00:01:44;4.82;;;2.92;;
59014;SDS011;44799;53.382;14.666;2022-10-17T00:04:09;6.03;;;2.20;;
59014;SDS011;44799;53.382;14.666;2022-10-17T00:06:35;4.05;;;1.90;;
59014;SDS011;44799;53.382;14.666;2022-10-17T00:09:02;2.72;;;1.85;;
59014;SDS011;44799;53.382;14.666;2022-10-17T00:11:28;3.72;;;2.20;;
59014;SDS011;44799;53.382;14.666;2022-10-17T00:13:54;7.53;;;2.50;;
59014;SDS011;44799;53.382;14.666;2022-10-17T00:16:24;4.35;;;2.20;;
59014;SDS011;44799;53.382;14.666;2022-10-17T00:18:51;6.68;;;2.90;;
59014;SDS011;44799;53.382;14.666;2022-10-17T00:21:17;5.35;;;2.33;;
59014;SDS011;44799;53.382;14.666;2022-10-17T00:23:44;5.60;;;2.33;;
59014;SDS011;44799;53.382;14.666;2022-10-17T00:26:11;4.72;;;2.38;;
59014;SDS011;44799;53.382;14.666;2022-10-17T00:28:37;5.28;;;1.70;;
59014;SDS011;44799;53.382;14.666;2022-10-17T00:31:04;3.13;;;1.35;;
59014;SDS011;44799;53.382;14.666;2022-10-17T00:33:31;5.03;;;1.42;;
59014;SDS011;44799;53.382;14.666;2022-10-17T00:36:06;2.97;;;1.35;;
59014;SDS011;44799;53.382;14.666;2022-10-17T00:38:37;4.25;;;1.55;;
59014;SDS011;44799;53.382;14.666;2022-10-17T00:41:07;5.97;;;2.15;;
59014;SDS011;44799;53.382;14.666;2022-10-17T00:43:50;3.30;;;1.98;;
59014;SDS011;44799;53.382;14.666;2022-10-17T00:46:18;7.50;;;1.80;;
59014;SDS011;44799;53.382;14.666;2022-10-17T00:48:45;7.72;;;2.33;;
59014;SDS011;44799;53.382;14.666;2022-10-17T00:51:16;2.25;;;1.52;;
59014;SDS011;44799;53.382;14.666;2022-10-17T00:53:44;4.72;;;1.63;;
59014;SDS011;44799;53.382;14.666;2022-10-17T00:56:11;2.92;;;1.48;;
59014;SDS011;44799;53.382;14.666;2022-10-17T00:58:37;2.97;;;1.63;;
59014;SDS011;44799;53.382;14.666;2022-10-17T01:01:03;6.93;;;2.60;;
59014;SDS011;44799;53.382;14.666;2022-10-17T01:03:29;2.95;;;2.05;;
59014;SDS011;44799;53.382;14.666;2022-10-17T01:05:55;5.32;;;2.00;;
59014;SDS011;44799;53.382;14.666;2022-10-17T01:08:21;2.33;;;1.65;;
59014;SDS011;44799;53.382;14.666;2022-10-17T01:16:00;2.75;;;1.70;;
59014;SDS011;44799;53.382;14.666;2022-10-17T01:18:48;3.35;;;1.30;;
59014;SDS011;44799;53.382;14.666;2022-10-17T01:24:28;1.85;;;1.55;;
59014;SDS011;44799;53.382;14.666;2022-10-17T01:30:08;4.28;;;1.88;;
59014;SDS011;44799;53.382;14.666;2022-10-17T01:33:20;1.65;;;1.10;;
59014;SDS011;44799;53.382;14.666;2022-10-17T01:35:52;2.42;;;1.13;;
59014;SDS011;44799;53.382;14.666;2022-10-17T01:38:47;2.13;;;1.20;;
59014;SDS011;44799;53.382;14.666;2022-10-17T01:41:21;4.15;;;1.27;;
59014;SDS011;44799;53.382;14.666;2022-10-17T01:44:41;3.42;;;1.42;;
59014;SDS011;44799;53.382;14.666;2022-10-17T01:47:15;2.10;;;1.10;;
59014;SDS011;44799;53.382;14.666;2022-10-17T01:49:43;7.03;;;1.67;;
59014;SDS011;44799;53.382;14.666;2022-10-17T01:52:15;2.90;;;1.20;;
59014;SDS011;44799;53.382;14.666;2022-10-17T01:54:55;4.30;;;1.77;;
59014;SDS011;44799;53.382;14.666;2022-10-17T01:57:35;3.90;;;1.38;;
59014;SDS011;44799;53.382;14.666;2022-10-17T02:00:08;2.50;;;1.85;;
59014;SDS011;44799;53.382;14.666;2022-10-17T02:02:36;3.30;;;2.25;;
59014;SDS011;44799;53.382;14.666;2022-10-17T02:05:03;5.18;;;3.17;;
59014;SDS011;44799;53.382;14.666;2022-10-17T02:07:29;6.85;;;3.20;;
59014;SDS011;44799;53.382;14.666;2022-10-17T02:09:55;6.68;;;3.47;;
59014;SDS011;44799;53.382;14.666;2022-10-17T02:15:27;5.35;;;3.00;;
59014;SDS011;44799;53.382;14.666;2022-10-17T02:20:34;6.72;;;2.83;;
59014;SDS011;44799;53.382;14.666;2022-10-17T02:31:17;6.85;;;2.45;;
59014;SDS011;44799;53.382;14.666;2022-10-17T02:33:52;5.13;;;2.15;;
59014;SDS011;44799;53.382;14.666;2022-10-17T02:36:30;2.50;;;1.88;;
59014;SDS011;44799;53.382;14.666;2022-10-17T02:39:00;9.75;;;2.10;;
59014;SDS011;44799;53.382;14.666;2022-10-17T02:41:28;2.88;;;1.77;;
59014;SDS011;44799;53.382;14.666;2022-10-17T02:43:55;5.82;;;2.30;;
59014;SDS011;44799;53.382;14.666;2022-10-17T02:46:22;5.32;;;2.17;;
59014;SDS011;44799;53.382;14.666;2022-10-17T02:52:09;4.15;;;2.55;;
59014;SDS011;44799;53.382;14.666;2022-10-17T02:54:41;14.18;;;2.67;;
59014;SDS011;44799;53.382;14.666;2022-10-17T02:57:24;4.28;;;1.80;;
59014;SDS011;44799;53.382;14.666;2022-10-17T03:00:07;4.90;;;1.63;;
59014;SDS011;44799;53.382;14.666;2022-10-17T03:02:40;5.15;;;1.52;;
